Aurora, Texas
Current Conditions -  °F | °C
As of 8:33 AM on Saturday 22 Nov 2014 (Local Time) from KAFW Reporting Station
Haze Haze  
Wind Chill: 59°   Ceiling: 500
Heat Index: 59°   Visibility: 2mi
Dew Point: 58°   Wind: 12mph
Humidity: 96%   Direction: 140°SE
Pressure: 30.02"   Gusts: NA
Location:  33.0495°N, 97.45°W
Report Text: KAFW 221433Z 14010KT 2SM BR BKN005 OVC013 15/14 A3002 RMK AO2 RAE28 TSB04E33 TS MOV NE P0008 T01500144
Loading
Personal Weather Stations






























Interactive Weather Map New forecast layout! Learn more

10-Day Weather Forecast

Advertisements
Track Severe Weather on mobile